createdAt,value
2023-04-30T00:01:11.400Z,53.41
2023-04-30T00:03:38.535Z,53.25
2023-04-30T00:06:05.777Z,53.33
2023-04-30T00:08:32.886Z,53.46
2023-04-30T00:10:59.923Z,53.79
2023-04-30T00:13:26.987Z,53.73
2023-04-30T00:15:54.099Z,53.69
2023-04-30T00:18:21.583Z,54.19
2023-04-30T00:20:48.676Z,54.10
2023-04-30T00:23:15.823Z,53.69
2023-04-30T00:25:42.978Z,53.33
2023-04-30T00:28:10.077Z,52.76
2023-04-30T00:30:37.448Z,52.68
2023-04-30T00:33:05.726Z,52.71
2023-04-30T00:35:32.840Z,52.59
2023-04-30T00:37:59.892Z,52.88
2023-04-30T00:40:27.054Z,52.88
2023-04-30T00:42:55.867Z,53.14
2023-04-30T00:45:23.621Z,53.43
2023-04-30T00:47:50.836Z,53.76
2023-04-30T00:50:18.066Z,54.52
2023-04-30T00:52:45.698Z,53.79
2023-04-30T00:55:13.491Z,54.27
2023-04-30T00:57:41.088Z,54.68
2023-04-30T01:00:12.106Z,54.97
2023-04-30T01:02:40.597Z,54.73
2023-04-30T01:05:08.785Z,54.69
2023-04-30T01:07:38.984Z,54.97
2023-04-30T01:10:07.315Z,55.71
2023-04-30T01:12:49.489Z,55.81
2023-04-30T01:15:43.342Z,55.90
2023-04-30T01:18:23.339Z,56.47
2023-04-30T01:20:57.850Z,56.84
2023-04-30T01:24:15.091Z,56.72
2023-04-30T01:27:21.900Z,56.68
2023-04-30T01:29:49.854Z,57.57
2023-04-30T01:32:17.050Z,57.71
2023-04-30T01:34:44.852Z,57.52
2023-04-30T01:37:42.728Z,57.95
2023-04-30T01:40:20.637Z,57.66
2023-04-30T01:43:06.749Z,58.04
2023-04-30T01:46:05.359Z,57.79
2023-04-30T01:49:02.489Z,56.85
2023-04-30T01:51:38.604Z,57.14
2023-04-30T01:54:39.232Z,57.35
2023-04-30T01:57:18.716Z,57.29
2023-04-30T01:59:46.845Z,57.08
2023-04-30T02:02:13.927Z,57.68
2023-04-30T02:04:41.013Z,57.21
2023-04-30T02:07:08.141Z,57.69
2023-04-30T02:09:35.422Z,57.64
2023-04-30T02:12:03.853Z,57.08
2023-04-30T02:14:32.158Z,57.39
2023-04-30T02:16:59.292Z,57.37
2023-04-30T02:19:26.646Z,57.84
2023-04-30T02:21:54.009Z,57.84
2023-04-30T02:24:21.098Z,57.64
2023-04-30T02:26:48.140Z,57.38
2023-04-30T02:29:16.261Z,57.73
2023-04-30T02:31:43.419Z,57.35
2023-04-30T02:34:11.324Z,57.59
2023-04-30T02:36:38.363Z,57.78
2023-04-30T02:39:05.446Z,57.74
2023-04-30T02:41:32.587Z,57.62
2023-04-30T02:43:59.695Z,57.92
2023-04-30T02:46:26.789Z,57.95
2023-04-30T02:48:53.832Z,58.13
2023-04-30T02:51:20.952Z,58.08
2023-04-30T02:53:48.146Z,58.24
2023-04-30T02:56:15.207Z,58.17
2023-04-30T02:58:42.260Z,58.33
2023-04-30T03:01:09.457Z,58.72
2023-04-30T03:03:36.580Z,59.19
2023-04-30T03:06:04.679Z,59.94
2023-04-30T03:08:32.146Z,59.99
2023-04-30T03:10:59.323Z,59.83
2023-04-30T03:13:26.418Z,59.48
2023-04-30T03:16:04.722Z,59.16
2023-04-30T03:18:32.740Z,59.40
2023-04-30T03:20:59.869Z,59.40
2023-04-30T03:23:28.506Z,59.22
2023-04-30T03:25:55.578Z,59.45
2023-04-30T03:28:23.122Z,59.77
2023-04-30T03:30:50.766Z,59.80
2023-04-30T03:33:17.881Z,60.45
2023-04-30T03:35:45.103Z,60.20
2023-04-30T03:38:12.264Z,59.69
2023-04-30T03:40:39.317Z,60.12
2023-04-30T03:43:06.373Z,59.67
2023-04-30T03:45:34.044Z,59.44
2023-04-30T03:48:01.195Z,59.38
2023-04-30T03:50:28.393Z,58.83
2023-04-30T03:52:56.752Z,58.40
2023-04-30T03:55:24.916Z,58.44
2023-04-30T03:57:52.173Z,59.09
2023-04-30T04:00:19.789Z,58.84
2023-04-30T04:02:50.216Z,59.27
2023-04-30T04:05:17.382Z,59.13
2023-04-30T04:07:45.675Z,58.78
2023-04-30T04:10:13.584Z,59.00
2023-04-30T04:12:40.629Z,58.02
2023-04-30T04:15:08.865Z,57.83
2023-04-30T04:17:36.123Z,57.63
2023-04-30T04:20:06.101Z,58.04
2023-04-30T04:22:34.835Z,58.08
2023-04-30T04:25:02.474Z,57.74
2023-04-30T04:27:31.141Z,57.35
2023-04-30T04:29:58.199Z,58.16
2023-04-30T04:32:27.416Z,58.13
2023-04-30T04:34:55.237Z,57.72
2023-04-30T04:37:22.530Z,57.99
2023-04-30T04:39:49.985Z,57.57
2023-04-30T04:42:17.861Z,58.10
2023-04-30T04:44:45.230Z,57.80
2023-04-30T04:47:12.912Z,57.90
2023-04-30T04:49:40.079Z,57.15
2023-04-30T04:52:07.410Z,56.12
2023-04-30T04:54:34.746Z,55.91
2023-04-30T04:57:03.128Z,55.48
2023-04-30T04:59:30.384Z,55.72
2023-04-30T05:01:57.976Z,55.35
2023-04-30T05:04:25.545Z,55.03
2023-04-30T05:06:52.655Z,54.93
2023-04-30T05:09:20.327Z,54.85
2023-04-30T05:11:49.077Z,55.00
2023-04-30T05:14:16.674Z,55.24
2023-04-30T05:16:44.197Z,55.01
2023-04-30T05:19:11.432Z,54.91
2023-04-30T05:21:40.143Z,55.05
2023-04-30T05:24:07.847Z,54.70
2023-04-30T05:26:34.889Z,54.64
2023-04-30T05:29:01.962Z,54.79
2023-04-30T05:31:29.023Z,53.92
2023-04-30T05:33:56.133Z,53.92
2023-04-30T05:36:23.220Z,53.61
2023-04-30T05:38:50.310Z,54.13
2023-04-30T05:41:17.406Z,53.55
2023-04-30T05:43:44.461Z,53.36
2023-04-30T05:46:11.607Z,53.48
2023-04-30T05:48:39.125Z,53.81
2023-04-30T05:51:06.809Z,53.47
2023-04-30T05:53:34.282Z,53.14
2023-04-30T05:56:01.489Z,53.03
2023-04-30T05:58:28.614Z,52.76
2023-04-30T06:00:56.007Z,52.17
2023-04-30T06:03:23.673Z,52.54
2023-04-30T06:05:50.863Z,51.35
2023-04-30T06:08:18.089Z,50.14
2023-04-30T06:10:45.326Z,50.37
2023-04-30T06:13:12.610Z,51.43
2023-04-30T06:15:41.703Z,51.26
2023-04-30T06:18:08.821Z,52.05
2023-04-30T06:20:35.989Z,52.22
2023-04-30T06:23:03.998Z,51.32
2023-04-30T06:25:31.133Z,50.49
2023-04-30T06:27:58.347Z,49.98
2023-04-30T06:30:25.705Z,51.07
2023-04-30T06:32:52.950Z,51.00
2023-04-30T06:35:20.278Z,51.47
2023-04-30T06:37:47.381Z,51.08
2023-04-30T06:40:14.462Z,50.55
2023-04-30T06:42:41.956Z,50.49
2023-04-30T06:45:10.176Z,49.60
2023-04-30T06:47:38.397Z,50.08
2023-04-30T06:50:06.422Z,49.92
2023-04-30T06:52:33.635Z,49.47
2023-04-30T06:55:01.152Z,49.06
2023-04-30T06:57:28.411Z,48.98
2023-04-30T06:59:56.907Z,48.98
2023-04-30T07:02:24.154Z,48.33
2023-04-30T07:04:51.327Z,47.60
2023-04-30T07:07:18.621Z,47.28
2023-04-30T07:09:45.738Z,48.53
2023-04-30T07:12:13.738Z,48.08
2023-04-30T07:14:41.048Z,48.62
2023-04-30T07:17:08.277Z,48.44
2023-04-30T07:19:35.912Z,47.45
2023-04-30T07:22:03.462Z,46.43
2023-04-30T07:24:32.005Z,46.15
2023-04-30T07:27:02.955Z,45.02
2023-04-30T07:29:30.564Z,44.34
2023-04-30T07:31:58.421Z,44.53
2023-04-30T07:34:25.793Z,43.93
2023-04-30T07:36:52.880Z,43.90
2023-04-30T07:39:20.434Z,43.39
2023-04-30T07:41:47.666Z,43.52
2023-04-30T07:44:15.159Z,43.32
2023-04-30T07:46:45.047Z,43.61
2023-04-30T07:49:12.819Z,44.14
2023-04-30T07:51:42.572Z,44.26
2023-04-30T07:54:10.445Z,43.88
2023-04-30T07:56:38.751Z,44.75
2023-04-30T07:59:09.506Z,44.24
2023-04-30T08:01:36.724Z,44.94
2023-04-30T08:04:04.617Z,43.71
2023-04-30T08:06:32.058Z,43.57
2023-04-30T08:08:59.500Z,43.45
2023-04-30T08:11:30.030Z,42.81
2023-04-30T08:13:57.372Z,42.87
2023-04-30T08:16:24.891Z,42.06
2023-04-30T08:18:52.275Z,41.19
2023-04-30T08:21:21.603Z,40.58
2023-04-30T08:23:48.817Z,40.75
2023-04-30T08:26:16.078Z,40.95
2023-04-30T08:28:45.694Z,40.81
2023-04-30T08:31:13.416Z,40.32
2023-04-30T08:33:41.303Z,42.14
2023-04-30T08:36:08.592Z,42.58
2023-04-30T08:38:36.039Z,42.32
2023-04-30T08:41:14.356Z,43.47
2023-04-30T08:43:44.500Z,42.86
2023-04-30T08:46:17.295Z,42.90
2023-04-30T08:48:45.403Z,42.61
2023-04-30T08:51:12.695Z,41.28
2023-04-30T08:53:42.622Z,39.95
2023-04-30T08:56:12.976Z,41.06
2023-04-30T08:58:41.123Z,40.76
2023-04-30T09:01:09.716Z,42.16
2023-04-30T09:03:37.835Z,42.12
2023-04-30T09:06:05.683Z,41.55
2023-04-30T09:08:43.896Z,41.87
2023-04-30T09:11:26.585Z,41.42
2023-04-30T09:13:57.989Z,42.01
2023-04-30T09:16:28.108Z,43.21
2023-04-30T09:18:56.814Z,41.90
2023-04-30T09:21:37.356Z,39.95
2023-04-30T09:24:05.996Z,39.20
2023-04-30T09:26:36.502Z,38.59
2023-04-30T09:29:08.330Z,40.43
2023-04-30T09:31:44.542Z,40.69
2023-04-30T09:34:11.920Z,41.59
2023-04-30T09:36:54.855Z,41.38
2023-04-30T09:39:22.482Z,41.38
2023-04-30T09:41:52.261Z,40.93
2023-04-30T09:44:29.011Z,40.24
2023-04-30T09:46:58.123Z,38.83
2023-04-30T09:49:26.751Z,39.15
2023-04-30T09:51:59.434Z,39.91
2023-04-30T09:54:29.575Z,37.62
2023-04-30T09:56:59.608Z,36.18
2023-04-30T09:59:31.607Z,36.68
2023-04-30T10:02:01.365Z,37.22
2023-04-30T10:04:39.488Z,37.26
2023-04-30T10:07:16.724Z,39.58
2023-04-30T10:09:51.252Z,39.63
2023-04-30T10:12:38.283Z,39.17
2023-04-30T10:15:39.320Z,37.24
2023-04-30T10:18:23.879Z,35.99
2023-04-30T10:20:54.119Z,35.76
2023-04-30T10:23:22.347Z,36.14
2023-04-30T10:25:51.302Z,36.94
2023-04-30T10:28:18.391Z,36.89
2023-04-30T10:30:45.981Z,35.80
2023-04-30T10:33:28.697Z,34.94
2023-04-30T10:36:08.433Z,35.91
2023-04-30T10:38:38.047Z,36.31
2023-04-30T10:41:09.303Z,36.62
2023-04-30T10:43:37.192Z,36.41
2023-04-30T10:46:04.907Z,34.96
2023-04-30T10:48:36.066Z,34.25
2023-04-30T10:51:03.850Z,34.38
2023-04-30T10:53:32.285Z,33.21
2023-04-30T10:56:09.173Z,34.13
2023-04-30T10:58:39.375Z,34.04
2023-04-30T11:01:17.479Z,34.94
2023-04-30T11:04:11.833Z,35.90
2023-04-30T11:07:02.319Z,36.10
2023-04-30T11:09:48.726Z,36.45
2023-04-30T11:12:28.810Z,35.54
2023-04-30T11:15:06.307Z,35.13
2023-04-30T11:17:34.078Z,34.38
2023-04-30T11:20:01.945Z,34.66
2023-04-30T11:22:38.706Z,35.02
2023-04-30T11:25:10.448Z,34.22
2023-04-30T11:27:40.251Z,34.96
2023-04-30T11:30:15.281Z,34.57
2023-04-30T11:32:47.536Z,34.93
2023-04-30T11:35:19.826Z,33.44
2023-04-30T11:37:49.217Z,32.16
2023-04-30T11:40:16.333Z,31.66
2023-04-30T11:42:45.933Z,31.05
2023-04-30T11:45:23.555Z,29.68
2023-04-30T11:47:53.749Z,28.86
2023-04-30T11:50:29.128Z,30.98
2023-04-30T11:52:59.141Z,27.65
2023-04-30T11:55:28.268Z,25.39
2023-04-30T11:57:59.305Z,24.72
2023-04-30T12:00:31.224Z,23.22
2023-04-30T12:03:01.563Z,22.53
2023-04-30T12:05:28.956Z,21.67
2023-04-30T12:08:00.842Z,21.01
2023-04-30T12:10:28.012Z,20.78
2023-04-30T12:12:55.509Z,21.10
2023-04-30T12:15:27.903Z,22.86
2023-04-30T12:17:59.992Z,22.05
2023-04-30T12:20:29.756Z,21.24
2023-04-30T12:22:58.689Z,20.67
2023-04-30T12:25:30.115Z,20.31
2023-04-30T12:27:59.943Z,19.36
2023-04-30T12:30:27.744Z,18.85
2023-04-30T12:32:58.755Z,18.79
2023-04-30T12:35:29.385Z,18.33
2023-04-30T12:38:09.710Z,18.80
2023-04-30T12:40:37.145Z,19.04
2023-04-30T12:43:08.220Z,19.62
2023-04-30T12:45:54.264Z,20.07
2023-04-30T12:48:26.057Z,19.13
2023-04-30T12:51:00.861Z,17.73
2023-04-30T12:53:29.793Z,17.73
2023-04-30T12:56:17.437Z,17.99
2023-04-30T12:58:50.633Z,18.51
2023-04-30T13:01:23.167Z,18.14
2023-04-30T13:03:51.218Z,17.64
2023-04-30T13:06:18.619Z,18.13
2023-04-30T13:08:57.816Z,17.88
2023-04-30T13:11:27.036Z,18.41
2023-04-30T13:13:55.942Z,17.96
2023-04-30T13:16:24.911Z,17.83
2023-04-30T13:18:52.377Z,17.46
2023-04-30T13:21:19.692Z,16.86
2023-04-30T13:23:52.537Z,17.37
2023-04-30T13:26:23.335Z,17.65
2023-04-30T13:28:51.158Z,17.15
2023-04-30T13:31:18.588Z,17.43
2023-04-30T13:33:45.712Z,17.38
2023-04-30T13:36:12.909Z,17.07
2023-04-30T13:38:40.542Z,16.81
2023-04-30T13:41:07.895Z,17.27
2023-04-30T13:43:35.301Z,17.32
2023-04-30T13:46:02.444Z,17.06
2023-04-30T13:48:29.766Z,17.34
2023-04-30T13:50:56.957Z,18.41
2023-04-30T13:53:24.242Z,18.30
2023-04-30T13:55:51.351Z,17.33
2023-04-30T13:58:19.043Z,17.16
2023-04-30T14:00:46.403Z,18.19
2023-04-30T14:03:14.379Z,18.73
2023-04-30T14:05:41.521Z,18.60
2023-04-30T14:08:08.784Z,18.05
2023-04-30T14:10:36.151Z,17.58
2023-04-30T14:13:03.472Z,17.14
2023-04-30T14:15:32.554Z,17.34
2023-04-30T14:18:00.631Z,17.88
2023-04-30T14:20:27.970Z,18.17
2023-04-30T14:22:55.327Z,18.32
2023-04-30T14:25:22.568Z,17.95
2023-04-30T14:27:49.697Z,17.54
2023-04-30T14:30:16.791Z,16.70
2023-04-30T14:32:43.895Z,17.12
2023-04-30T14:35:11.361Z,16.60
2023-04-30T14:37:38.503Z,16.82
2023-04-30T14:40:08.144Z,16.43
2023-04-30T14:42:35.235Z,16.50
2023-04-30T14:45:02.374Z,16.39
2023-04-30T14:47:29.642Z,16.56
2023-04-30T14:49:58.878Z,16.71
2023-04-30T14:52:26.195Z,17.12
2023-04-30T14:54:53.518Z,16.82
2023-04-30T14:57:20.816Z,16.60
2023-04-30T14:59:47.998Z,17.13
2023-04-30T15:02:15.150Z,16.92
2023-04-30T15:04:46.068Z,16.77
2023-04-30T15:07:13.478Z,16.94
2023-04-30T15:09:40.936Z,16.51
2023-04-30T15:12:08.108Z,16.27
2023-04-30T15:14:35.153Z,16.05
2023-04-30T15:17:02.301Z,15.88
2023-04-30T15:19:30.671Z,15.61
2023-04-30T15:21:57.917Z,15.58
2023-04-30T15:24:25.061Z,15.78
2023-04-30T15:26:54.852Z,15.63
2023-04-30T15:29:21.982Z,15.34
2023-04-30T15:31:52.043Z,15.29
2023-04-30T15:34:21.049Z,14.92
2023-04-30T15:36:49.258Z,15.48
2023-04-30T15:39:16.353Z,15.71
2023-04-30T15:41:47.704Z,15.74
2023-04-30T15:44:15.032Z,15.82
2023-04-30T15:46:42.353Z,16.41
2023-04-30T15:49:09.554Z,16.67
2023-04-30T15:51:37.574Z,16.22
2023-04-30T15:54:07.327Z,16.52
2023-04-30T15:56:35.833Z,16.40
2023-04-30T15:59:03.082Z,16.13
2023-04-30T16:01:30.251Z,16.49
2023-04-30T16:03:57.585Z,17.03
2023-04-30T16:06:24.920Z,16.85
2023-04-30T16:08:52.109Z,17.08
2023-04-30T16:11:22.761Z,16.56
2023-04-30T16:13:52.016Z,16.87
2023-04-30T16:16:19.188Z,17.16
2023-04-30T16:18:46.276Z,17.17
2023-04-30T16:21:13.456Z,17.38
2023-04-30T16:23:40.513Z,17.60
2023-04-30T16:26:07.688Z,17.47
2023-04-30T16:28:37.908Z,17.98
2023-04-30T16:31:05.108Z,17.78
2023-04-30T16:33:32.297Z,18.17
2023-04-30T16:35:59.473Z,18.24
2023-04-30T16:38:26.569Z,18.30
2023-04-30T16:40:54.314Z,18.57
2023-04-30T16:43:21.335Z,18.17
2023-04-30T16:45:50.068Z,18.43
2023-04-30T16:48:17.697Z,19.06
2023-04-30T16:50:44.910Z,19.38
2023-04-30T16:53:12.023Z,19.26
2023-04-30T16:55:39.139Z,19.13
2023-04-30T16:58:06.350Z,18.78
2023-04-30T17:00:33.640Z,19.60
2023-04-30T17:03:00.904Z,18.91
2023-04-30T17:05:28.072Z,20.02
2023-04-30T17:07:55.183Z,19.86
2023-04-30T17:10:22.908Z,20.49
2023-04-30T17:12:50.110Z,20.47
2023-04-30T17:15:19.019Z,20.46
2023-04-30T17:17:46.327Z,20.57
2023-04-30T17:20:13.588Z,21.34
2023-04-30T17:22:40.966Z,20.91
2023-04-30T17:25:09.250Z,21.86
2023-04-30T17:27:36.344Z,22.15
2023-04-30T17:30:06.576Z,22.67
2023-04-30T17:32:33.640Z,22.66
2023-04-30T17:35:02.838Z,23.07
2023-04-30T17:37:30.143Z,24.45
2023-04-30T17:39:57.524Z,25.61
2023-04-30T17:42:24.846Z,26.44
2023-04-30T17:44:51.886Z,26.71
2023-04-30T17:47:19.242Z,27.16
2023-04-30T17:49:46.411Z,27.32
2023-04-30T17:52:13.520Z,28.03
2023-04-30T17:54:40.864Z,28.19
2023-04-30T17:57:07.915Z,28.52
2023-04-30T17:59:35.134Z,28.92
2023-04-30T18:02:02.778Z,29.65
2023-04-30T18:04:29.808Z,30.01
2023-04-30T18:06:57.371Z,30.62
2023-04-30T18:09:24.796Z,30.64
2023-04-30T18:11:52.690Z,30.91
2023-04-30T18:14:19.857Z,31.41
2023-04-30T18:16:46.991Z,31.23
2023-04-30T18:19:14.539Z,31.87
2023-04-30T18:21:41.657Z,32.01
2023-04-30T18:24:08.914Z,32.44
2023-04-30T18:26:37.518Z,32.75
2023-04-30T18:29:04.813Z,32.65
2023-04-30T18:31:32.202Z,32.90
2023-04-30T18:33:59.267Z,33.19
2023-04-30T18:36:26.467Z,33.44
2023-04-30T18:38:53.578Z,33.63
2023-04-30T18:41:21.184Z,34.60
2023-04-30T18:43:48.797Z,34.47
2023-04-30T18:46:16.141Z,34.38
2023-04-30T18:48:43.295Z,34.63
2023-04-30T18:51:10.729Z,34.67
2023-04-30T18:53:37.823Z,34.83
2023-04-30T18:56:05.704Z,35.15
2023-04-30T18:58:32.832Z,35.66
2023-04-30T19:00:59.988Z,35.36
2023-04-30T19:03:28.962Z,36.13
2023-04-30T19:05:57.395Z,35.63
2023-04-30T19:08:24.914Z,35.64
2023-04-30T19:10:53.303Z,35.90
2023-04-30T19:13:20.433Z,37.46
2023-04-30T19:15:48.818Z,37.30
2023-04-30T19:18:16.784Z,36.34
2023-04-30T19:20:43.899Z,36.47
2023-04-30T19:23:11.000Z,36.68
2023-04-30T19:25:39.104Z,37.97
2023-04-30T19:28:06.316Z,38.27
2023-04-30T19:30:34.439Z,37.89
2023-04-30T19:33:01.840Z,38.86
2023-04-30T19:35:29.013Z,38.63
2023-04-30T19:37:56.161Z,38.64
2023-04-30T19:40:23.268Z,38.25
2023-04-30T19:42:51.619Z,39.40
2023-04-30T19:45:20.164Z,38.92
2023-04-30T19:47:47.399Z,39.97
2023-04-30T19:50:14.679Z,40.15
2023-04-30T19:52:42.033Z,39.43
2023-04-30T19:55:09.719Z,39.57
2023-04-30T19:57:36.817Z,39.76
2023-04-30T20:00:04.697Z,40.49
2023-04-30T20:02:33.962Z,40.53
2023-04-30T20:05:01.192Z,40.53
2023-04-30T20:07:28.349Z,40.71
2023-04-30T20:09:55.679Z,41.00
2023-04-30T20:12:23.099Z,41.69
2023-04-30T20:14:50.592Z,41.85
2023-04-30T20:17:18.018Z,42.32
2023-04-30T20:19:45.135Z,42.67
2023-04-30T20:22:13.360Z,42.63
2023-04-30T20:24:44.671Z,42.29
2023-04-30T20:27:14.815Z,42.57
2023-04-30T20:29:42.034Z,42.53
2023-04-30T20:32:09.354Z,42.76
2023-04-30T20:34:37.257Z,43.23
2023-04-30T20:37:07.455Z,43.03
2023-04-30T20:39:34.624Z,43.58
2023-04-30T20:42:01.829Z,43.52
2023-04-30T20:44:28.990Z,43.80
2023-04-30T20:46:56.316Z,43.88
2023-04-30T20:49:23.597Z,44.14
2023-04-30T20:51:50.783Z,44.35
2023-04-30T20:54:18.083Z,44.38
2023-04-30T20:56:46.909Z,44.49
2023-04-30T20:59:14.500Z,44.59
2023-04-30T21:01:41.820Z,44.45
2023-04-30T21:04:09.504Z,44.38
2023-04-30T21:06:37.199Z,44.62
2023-04-30T21:09:04.754Z,44.96
2023-04-30T21:11:33.823Z,45.29
2023-04-30T21:14:00.963Z,45.18
2023-04-30T21:16:30.353Z,45.13
2023-04-30T21:18:57.542Z,45.20
2023-04-30T21:21:24.708Z,45.29
2023-04-30T21:23:51.794Z,45.38
2023-04-30T21:26:19.315Z,45.61
2023-04-30T21:28:47.150Z,45.65
2023-04-30T21:31:15.173Z,45.83
2023-04-30T21:33:42.573Z,45.69
2023-04-30T21:36:09.744Z,46.03
2023-04-30T21:38:37.895Z,46.22
2023-04-30T21:41:05.167Z,45.85
2023-04-30T21:43:32.264Z,46.00
2023-04-30T21:46:03.420Z,46.90
2023-04-30T21:48:30.708Z,46.23
2023-04-30T21:50:57.899Z,45.64
2023-04-30T21:53:25.101Z,45.79
2023-04-30T21:55:52.351Z,45.78
2023-04-30T21:58:19.504Z,45.99
2023-04-30T22:00:46.657Z,46.34
2023-04-30T22:03:15.555Z,46.70
2023-04-30T22:05:43.637Z,47.24
2023-04-30T22:08:10.985Z,47.79
2023-04-30T22:10:38.265Z,48.19
2023-04-30T22:13:05.519Z,48.08
2023-04-30T22:15:47.192Z,47.98
2023-04-30T22:18:15.170Z,48.01
2023-04-30T22:20:42.290Z,48.41
2023-04-30T22:23:09.506Z,48.55
2023-04-30T22:25:36.631Z,48.93
2023-04-30T22:28:03.866Z,48.93
2023-04-30T22:30:31.329Z,48.98
2023-04-30T22:32:58.606Z,49.19
2023-04-30T22:35:28.126Z,49.18
2023-04-30T22:37:55.384Z,49.23
2023-04-30T22:40:23.151Z,49.16
2023-04-30T22:42:50.413Z,49.47
2023-04-30T22:45:18.071Z,49.51
2023-04-30T22:47:45.896Z,49.72
2023-04-30T22:50:13.341Z,49.92
2023-04-30T22:52:40.548Z,49.67
2023-04-30T22:55:08.802Z,49.83
2023-04-30T22:57:36.232Z,50.25
2023-04-30T23:00:04.865Z,49.94
2023-04-30T23:02:32.021Z,49.41
2023-04-30T23:04:59.338Z,49.67
2023-04-30T23:07:26.508Z,49.58
2023-04-30T23:09:54.019Z,49.85
2023-04-30T23:12:22.530Z,50.09
2023-04-30T23:14:50.182Z,50.12
2023-04-30T23:17:18.132Z,50.17
2023-04-30T23:19:45.239Z,50.37
2023-04-30T23:22:12.441Z,50.74
2023-04-30T23:24:41.103Z,50.54
2023-04-30T23:27:08.534Z,50.63
2023-04-30T23:29:36.493Z,50.75
2023-04-30T23:32:04.642Z,50.75
2023-04-30T23:34:32.058Z,50.99
2023-04-30T23:36:59.168Z,51.27
2023-04-30T23:39:26.336Z,51.72
2023-04-30T23:41:53.490Z,51.68
2023-04-30T23:44:21.003Z,51.48
2023-04-30T23:46:48.588Z,51.37
2023-04-30T23:49:17.882Z,51.38
2023-04-30T23:51:45.814Z,51.74
2023-04-30T23:54:13.019Z,51.78
2023-04-30T23:56:40.193Z,51.08
2023-04-30T23:59:07.684Z,51.30
